KBZN/BZN METAR and TAF weather

Enter ICAO airport designator
Station Type Date Time Source
KBZN METAR 2022/01/18 07:56 UTC NOAA

KBZN 180756Z AUTO 07004KT 10SM BKN075 03/M04 A2981 RMK AO2 SLP109 T00331039


Station Type Date Time Source
KBZN Decoded METAR 2022/01/18 07:56 UTC NOAA

BOZEMAN GALLATIN FIELD, MT, United States (KBZN) 45-47N 111-09W 1361M
Jan 18, 2022 - 02:56 AM EST / 2022.01.18 0756 UTC
Wind: from the ENE (070 degrees) at 5 MPH (4 KT):0
Visibility: 10 mile(s):0
Sky conditions: mostly cloudy
Temperature: 37.9 F (3.3 C)
Dew Point: 25.0 F (-3.9 C)
Relative Humidity: 59%
Pressure (altimeter): 29.81 in. Hg (1009 hPa)
ob: KBZN 180756Z AUTO 07004KT 10SM BKN075 03/M04 A2981 RMK AO2 SLP109 T00331039
cycle: 8

Station Type Date Time Source
KBZN TAF 2022/01/18 06:22 UTC NOAA

TAF KBZN 180520Z 1806/1912 VRB04KT P6SM BKN090 PROB30 1822/1824 4SM -SN BR BKN040
FM190000 VRB05KT 6SM -SN BR OVC030
FM190400 VRB05KT 2SM -SN BR OVC015
FM190600 VRB04KT P6SM OVC014 PROB30 1906/1912 4SM -SN BR OVC008

Example: see airport list